Time;durP1;ratioP1;P1;durP2;ratioP2;P2;SDS_P1;SDS_P2;PMS_P1;PMS_P2;Temp;Humidity;BMP_temperature;BMP_pressure;BME280_temperature;BME280_humidity;BME280_pressure;Samples;Min_cycle;Max_cycle;Signal;HPM_P1;HPM_P2
2021/10/03 00:00:48;;;;;;;6.45;4.93;;;17.70;75.70;;;;;;6227633;28;20477;-78
2021/10/03 00:03:53;;;;;;;10.68;5.63;;;17.50;76.00;;;;;;6228145;28;20533;-78
2021/10/03 00:06:56;;;;;;;6.47;5.43;;;17.40;76.80;;;;;;6221803;28;20803;-78
2021/10/03 00:09:58;;;;;;;5.72;5.22;;;17.50;76.90;;;;;;6224588;28;20513;-78
2021/10/03 00:13:03;;;;;;;9.20;5.80;;;17.50;76.60;;;;;;6227874;28;20518;-78
2021/10/03 00:16:06;;;;;;;6.20;5.25;;;17.50;76.50;;;;;;6227709;28;20481;-78
2021/10/03 00:19:10;;;;;;;8.98;5.97;;;17.50;76.80;;;;;;6227666;28;20454;-78
2021/10/03 00:22:12;;;;;;;6.93;5.80;;;17.50;77.30;;;;;;6227127;28;20462;-78
2021/10/03 00:25:14;;;;;;;9.87;5.70;;;17.50;77.20;;;;;;6226645;28;20468;-78
2021/10/03 00:28:16;;;;;;;7.20;5.38;;;17.50;77.80;;;;;;6227123;28;20436;-78
2021/10/03 00:31:18;;;;;;;7.65;6.45;;;17.50;77.40;;;;;;6227394;28;20433;-78
2021/10/03 00:34:21;;;;;;;6.25;5.65;;;17.60;77.60;;;;;;6228060;28;20578;-78
2021/10/03 00:37:23;;;;;;;7.82;5.70;;;17.50;77.50;;;;;;6227020;28;20502;-78
2021/10/03 00:40:25;;;;;;;6.53;5.93;;;17.50;77.40;;;;;;6226648;28;20994;-77
2021/10/03 00:43:27;;;;;;;9.68;5.63;;;17.60;77.30;;;;;;6227310;28;20921;-78
2021/10/03 00:46:29;;;;;;;6.90;6.00;;;17.60;77.40;;;;;;6227324;28;20960;-78
2021/10/03 00:49:36;;;;;;;7.28;5.90;;;17.60;77.20;;;;;;6225921;28;20456;-77
2021/10/03 00:52:38;;;;;;;8.68;5.30;;;17.60;77.10;;;;;;6227426;28;20520;-78
2021/10/03 00:55:40;;;;;;;6.68;5.50;;;17.60;76.80;;;;;;6226200;28;20421;-78
2021/10/03 00:58:42;;;;;;;5.40;4.95;;;17.70;76.90;;;;;;6225810;28;20456;-78
2021/10/03 01:01:44;;;;;;;7.25;5.55;;;17.70;76.90;;;;;;6226271;28;20421;-78
2021/10/03 01:04:48;;;;;;;7.00;5.70;;;17.80;77.40;;;;;;6226566;28;20450;-78
2021/10/03 01:07:49;;;;;;;8.15;5.55;;;17.80;76.80;;;;;;6224938;28;20527;-77
2021/10/03 01:10:51;;;;;;;7.45;5.30;;;17.70;76.80;;;;;;6224907;28;20972;-78
2021/10/03 01:13:53;;;;;;;6.60;5.75;;;17.70;76.80;;;;;;6226059;28;20502;-78
2021/10/03 01:16:55;;;;;;;7.47;6.78;;;17.70;77.70;;;;;;6226386;28;20511;-78
2021/10/03 01:19:58;;;;;;;9.90;5.88;;;17.60;77.10;;;;;;6225896;28;20535;-78
2021/10/03 01:23:04;;;;;;;7.10;5.82;;;17.70;77.10;;;;;;6225799;28;20790;-78
2021/10/03 01:26:06;;;;;;;6.57;5.53;;;17.70;77.10;;;;;;6226392;28;20458;-78
2021/10/03 01:29:08;;;;;;;10.20;5.93;;;17.60;76.70;;;;;;6224700;28;20460;-78
2021/10/03 01:32:10;;;;;;;7.07;5.40;;;17.60;76.80;;;;;;6226732;28;20584;-78
2021/10/03 01:35:12;;;;;;;7.47;5.65;;;17.70;76.80;;;;;;6225530;28;20420;-77
2021/10/03 01:38:17;;;;;;;7.97;5.53;;;17.60;76.80;;;;;;6225435;28;20498;-78
2021/10/03 01:41:19;;;;;;;6.30;5.70;;;17.60;76.60;;;;;;6224804;28;20951;-78
2021/10/03 01:44:21;;;;;;;6.60;5.90;;;17.60;76.70;;;;;;6221696;28;20439;-78
2021/10/03 01:47:23;;;;;;;7.30;5.75;;;17.60;77.40;;;;;;6227946;28;20878;-78
2021/10/03 01:50:25;;;;;;;8.38;6.20;;;17.50;76.80;;;;;;6227071;28;20420;-78
2021/10/03 01:53:31;;;;;;;7.05;5.95;;;17.60;76.80;;;;;;6224249;28;20495;-78
2021/10/03 01:56:34;;;;;;;6.57;5.82;;;17.50;77.00;;;;;;6224556;28;20553;-78
2021/10/03 01:59:36;;;;;;;7.70;5.67;;;17.50;76.90;;;;;;6224109;28;20448;-78
2021/10/03 02:02:38;;;;;;;6.07;5.47;;;17.50;77.00;;;;;;6223225;28;20573;-77
2021/10/03 02:05:42;;;;;;;8.73;5.63;;;17.50;77.50;;;;;;6221324;28;20502;-77
2021/10/03 02:08:49;;;;;;;5.85;5.13;;;17.50;77.10;;;;;;6220123;28;20611;-77
2021/10/03 02:11:53;;;;;;;6.87;5.83;;;17.50;77.00;;;;;;6220867;28;20596;-77
2021/10/03 02:14:55;;;;;;;6.25;5.65;;;17.50;77.20;;;;;;6221001;28;21086;-77
2021/10/03 02:17:57;;;;;;;5.97;5.33;;;17.50;77.10;;;;;;6221244;28;20483;-77
2021/10/03 02:20:58;;;;;;;6.70;6.00;;;17.50;77.10;;;;;;6222121;28;20979;-77
2021/10/03 02:24:02;;;;;;;5.90;5.35;;;17.50;77.10;;;;;;6222838;28;20490;-77
2021/10/03 02:27:04;;;;;;;5.93;5.30;;;17.50;77.10;;;;;;6221656;28;20457;-77
2021/10/03 02:30:08;;;;;;;6.68;5.88;;;17.40;77.30;;;;;;6221992;28;20930;-77
2021/10/03 02:33:11;;;;;;;6.47;5.78;;;17.50;77.30;;;;;;6221102;28;20840;-77
2021/10/03 02:36:14;;;;;;;6.20;5.60;;;17.50;77.10;;;;;;6221507;28;20436;-77
2021/10/03 02:39:17;;;;;;;8.20;6.45;;;17.40;77.10;;;;;;6220466;28;20448;-77
2021/10/03 02:42:19;;;;;;;6.40;5.70;;;17.40;77.20;;;;;;6221042;28;20519;-77
2021/10/03 02:45:21;;;;;;;6.73;5.87;;;17.40;77.30;;;;;;6221223;28;20429;-77
2021/10/03 02:48:25;;;;;;;7.80;5.68;;;17.40;77.30;;;;;;6221142;28;20482;-77
2021/10/03 02:51:30;;;;;;;5.93;5.27;;;17.40;77.10;;;;;;6221068;28;20486;-77
2021/10/03 02:54:33;;;;;;;6.45;5.82;;;17.30;77.10;;;;;;6221134;28;20537;-77
2021/10/03 02:57:35;;;;;;;7.03;6.10;;;17.30;77.10;;;;;;6221596;28;20418;-77
2021/10/03 03:00:39;;;;;;;6.43;5.82;;;17.40;76.80;;;;;;6221372;28;20518;-77
2021/10/03 03:03:41;;;;;;;6.65;5.28;;;17.50;77.10;;;;;;6221221;28;20458;-77
2021/10/03 03:06:43;;;;;;;7.47;5.47;;;17.50;77.50;;;;;;6221162;28;20416;-77
2021/10/03 03:09:46;;;;;;;7.30;6.45;;;17.50;76.80;;;;;;6219557;28;20466;-78
2021/10/03 03:12:48;;;;;;;6.97;5.93;;;17.50;77.00;;;;;;6221417;28;20891;-77
2021/10/03 03:15:50;;;;;;;7.33;5.60;;;17.60;76.90;;;;;;6221876;28;20440;-77
2021/10/03 03:18:51;;;;;;;7.03;5.88;;;17.60;76.80;;;;;;6221023;28;20445;-77
2021/10/03 03:21:53;;;;;;;7.00;5.40;;;17.60;76.90;;;;;;6221483;28;20498;-77
2021/10/03 03:24:56;;;;;;;7.45;6.65;;;17.70;76.90;;;;;;6221844;28;20476;-77
2021/10/03 03:27:58;;;;;;;8.38;6.40;;;17.70;76.70;;;;;;6221260;28;20887;-77
2021/10/03 03:31:00;;;;;;;8.85;6.30;;;17.70;76.90;;;;;;6221004;28;20444;-77
2021/10/03 03:34:02;;;;;;;6.53;5.83;;;17.70;76.60;;;;;;6221723;28;20424;-77
2021/10/03 03:37:04;;;;;;;8.55;6.30;;;17.80;76.20;;;;;;6221264;28;20467;-77
2021/10/03 03:40:10;;;;;;;7.60;5.90;;;17.80;76.10;;;;;;6221331;28;20527;-77
2021/10/03 03:43:12;;;;;;;8.90;6.63;;;17.80;76.30;;;;;;6221299;28;20472;-77
2021/10/03 03:46:13;;;;;;;6.78;5.97;;;17.90;76.30;;;;;;6220980;28;20574;-77
2021/10/03 03:49:15;;;;;;;7.90;5.70;;;17.80;76.50;;;;;;6220835;28;20417;-77
2021/10/03 03:52:17;;;;;;;6.97;5.68;;;17.80;76.70;;;;;;6225613;28;20499;-77
2021/10/03 03:55:21;;;;;;;6.57;5.70;;;17.80;76.80;;;;;;6225377;28;20888;-77
2021/10/03 03:58:23;;;;;;;5.97;5.30;;;17.80;76.90;;;;;;6225684;28;20805;-77
2021/10/03 04:01:25;;;;;;;8.85;5.65;;;17.70;76.80;;;;;;6225269;28;20479;-77
2021/10/03 04:04:26;;;;;;;6.47;5.88;;;17.70;76.80;;;;;;6226195;28;20914;-78
2021/10/03 04:07:28;;;;;;;7.00;6.40;;;17.70;77.10;;;;;;6226019;28;20467;-77
2021/10/03 04:10:31;;;;;;;7.78;6.97;;;17.70;77.10;;;;;;6223991;28;20894;-77
2021/10/03 04:13:34;;;;;;;6.72;5.60;;;17.70;77.20;;;;;;6224390;28;20462;-78
2021/10/03 04:16:36;;;;;;;7.75;6.07;;;17.60;77.70;;;;;;6225902;28;20486;-78
2021/10/03 04:19:37;;;;;;;7.28;5.35;;;17.60;77.50;;;;;;6225678;28;20767;-77
2021/10/03 04:22:39;;;;;;;7.82;5.20;;;17.60;77.60;;;;;;6225704;28;20482;-78
2021/10/03 04:25:42;;;;;;;6.20;5.55;;;17.60;77.80;;;;;;6225972;28;20555;-77
2021/10/03 04:28:44;;;;;;;7.60;5.93;;;17.50;77.60;;;;;;6226502;28;20488;-77
2021/10/03 04:31:46;;;;;;;8.10;6.00;;;17.50;77.80;;;;;;6226358;28;20417;-77
2021/10/03 04:34:48;;;;;;;5.73;4.67;;;17.50;78.60;;;;;;6226452;28;20503;-78
2021/10/03 04:37:50;;;;;;;9.52;5.70;;;17.40;78.20;;;;;;6225888;28;20419;-78
2021/10/03 04:40:53;;;;;;;7.27;5.53;;;17.40;78.60;;;;;;6225752;28;20475;-78
2021/10/03 04:43:55;;;;;;;11.15;5.93;;;17.40;78.10;;;;;;6226582;28;20569;-78
2021/10/03 04:46:58;;;;;;;7.10;6.27;;;17.40;77.90;;;;;;6226066;28;20494;-78
2021/10/03 04:50:00;;;;;;;7.15;5.80;;;17.50;77.80;;;;;;6225981;28;20458;-77
2021/10/03 04:53:02;;;;;;;6.70;5.85;;;17.50;78.00;;;;;;6226042;28;20487;-78
2021/10/03 04:56:06;;;;;;;5.95;5.40;;;17.40;77.90;;;;;;6226129;28;20500;-78
2021/10/03 04:59:07;;;;;;;8.30;5.63;;;17.40;77.80;;;;;;6226237;28;20454;-78
2021/10/03 05:02:09;;;;;;;6.22;5.35;;;17.40;78.50;;;;;;6225580;28;20499;-78
2021/10/03 05:05:11;;;;;;;5.47;4.97;;;17.40;77.80;;;;;;6226271;28;20491;-78
2021/10/03 05:08:13;;;;;;;8.73;5.85;;;17.50;78.10;;;;;;6226579;28;20472;-78
2021/10/03 05:11:16;;;;;;;7.47;6.40;;;17.50;78.10;;;;;;6225099;28;20439;-78
2021/10/03 05:14:18;;;;;;;7.50;6.00;;;17.50;77.90;;;;;;6225338;28;20458;-79
2021/10/03 05:17:20;;;;;;;6.63;5.88;;;17.70;77.80;;;;;;6225674;28;20413;-77
2021/10/03 05:20:22;;;;;;;7.85;7.15;;;17.60;77.50;;;;;;6226953;28;20516;-77
2021/10/03 05:23:24;;;;;;;6.40;5.80;;;17.70;77.40;;;;;;6226762;28;20425;-78
2021/10/03 05:26:27;;;;;;;6.90;6.20;;;17.70;77.10;;;;;;6226383;28;20444;-78
2021/10/03 05:29:29;;;;;;;7.85;6.55;;;17.80;76.80;;;;;;6225953;28;20669;-78
2021/10/03 05:32:31;;;;;;;8.52;7.00;;;17.80;76.90;;;;;;6226871;28;20586;-78
2021/10/03 05:35:33;;;;;;;8.27;7.53;;;17.90;76.70;;;;;;6225673;28;20464;-78
2021/10/03 05:38:34;;;;;;;12.18;10.25;;;17.90;76.60;;;;;;6225117;28;20463;-78
2021/10/03 05:41:38;;;;;;;8.30;7.50;;;17.90;76.40;;;;;;6225436;28;20494;-77
2021/10/03 05:44:39;;;;;;;9.48;8.00;;;18.00;76.50;;;;;;6226304;28;20460;-79
2021/10/03 05:47:41;;;;;;;11.80;10.70;;;18.00;76.20;;;;;;6226741;28;20498;-79
2021/10/03 05:50:43;;;;;;;9.60;7.72;;;18.10;75.60;;;;;;6225507;28;20900;-78
2021/10/03 05:53:45;;;;;;;9.45;8.70;;;18.10;75.30;;;;;;6225646;28;20492;-78
2021/10/03 05:56:48;;;;;;;8.52;7.65;;;18.20;75.40;;;;;;6225660;28;20495;-77
2021/10/03 05:59:50;;;;;;;8.35;7.55;;;18.20;75.10;;;;;;6225563;28;20467;-78
2021/10/03 06:02:52;;;;;;;7.28;6.05;;;18.30;74.90;;;;;;6225270;28;20424;-78
2021/10/03 06:05:54;;;;;;;9.87;7.07;;;18.30;74.70;;;;;;6225193;28;20562;-77
2021/10/03 06:08:56;;;;;;;8.32;7.25;;;18.50;74.20;;;;;;6224539;28;20813;-78
2021/10/03 06:11:59;;;;;;;9.10;6.28;;;18.50;74.40;;;;;;6225660;28;20578;-78
2021/10/03 06:15:01;;;;;;;7.03;6.40;;;18.50;74.30;;;;;;6220590;28;20424;-78
2021/10/03 06:18:03;;;;;;;9.40;7.25;;;18.60;74.80;;;;;;6225113;28;20420;-78
2021/10/03 06:21:11;;;;;;;7.05;5.65;;;18.60;75.20;;;;;;6224886;28;20810;-78
2021/10/03 06:24:13;;;;;;;7.00;5.60;;;18.60;75.70;;;;;;6226190;28;20428;-78
2021/10/03 06:27:16;;;;;;;7.75;6.35;;;18.50;75.70;;;;;;6225500;28;20474;-79
2021/10/03 06:30:18;;;;;;;6.63;6.03;;;18.50;75.90;;;;;;6239664;23;20539;-82
2021/10/03 06:33:20;;;;;;;7.70;7.00;;;18.60;75.00;;;;;;6203148;28;20422;-81
2021/10/03 06:36:22;;;;;;;6.40;5.80;;;18.60;75.40;;;;;;6203842;28;20966;-81
2021/10/03 06:39:24;;;;;;;7.43;6.80;;;18.60;75.30;;;;;;6201829;28;20517;-81
2021/10/03 06:42:27;;;;;;;7.15;6.43;;;18.70;75.40;;;;;;6201987;28;20426;-81
2021/10/03 06:45:29;;;;;;;9.05;6.13;;;18.70;74.80;;;;;;6200150;28;20442;-81
2021/10/03 06:48:30;;;;;;;8.30;5.90;;;18.70;75.70;;;;;;6197396;28;20556;-81
2021/10/03 06:51:32;;;;;;;6.63;5.43;;;18.70;75.50;;;;;;6202204;28;20443;-81
2021/10/03 06:54:34;;;;;;;9.50;8.50;;;18.70;75.90;;;;;;6202862;28;20497;-81
2021/10/03 06:57:38;;;;;;;8.70;6.45;;;18.70;75.80;;;;;;6202871;28;20505;-81
2021/10/03 07:00:39;;;;;;;12.65;8.18;;;18.80;75.90;;;;;;6202119;28;20523;-81
2021/10/03 07:03:41;;;;;;;10.00;6.88;;;18.90;76.80;;;;;;6201628;28;20473;-81
2021/10/03 07:06:43;;;;;;;9.00;7.93;;;19.00;75.70;;;;;;6201303;28;20430;-80
2021/10/03 07:09:45;;;;;;;8.23;6.70;;;19.10;75.70;;;;;;6201443;28;20951;-81
2021/10/03 07:12:48;;;;;;;8.93;7.75;;;19.30;74.90;;;;;;6199897;28;21006;-81
2021/10/03 07:15:50;;;;;;;10.18;7.57;;;19.50;74.70;;;;;;6194984;28;20512;-81
2021/10/03 07:18:52;;;;;;;12.50;7.63;;;19.50;74.60;;;;;;6179219;28;20490;-79
2021/10/03 07:21:54;;;;;;;16.88;11.00;;;19.50;74.90;;;;;;6177576;28;20467;-81
2021/10/03 07:24:56;;;;;;;10.80;6.53;;;19.60;74.90;;;;;;6180454;28;20440;-81
2021/10/03 07:27:59;;;;;;;7.65;6.53;;;19.60;74.90;;;;;;6184724;28;20446;-81
2021/10/03 07:31:01;;;;;;;6.32;5.75;;;19.60;74.90;;;;;;6183184;28;20464;-81
2021/10/03 07:34:03;;;;;;;8.48;6.70;;;19.60;75.00;;;;;;6183963;28;20514;-81
2021/10/03 07:37:05;;;;;;;15.07;7.85;;;19.60;75.50;;;;;;6184519;28;20471;-81
2021/10/03 07:40:09;;;;;;;10.32;9.20;;;19.50;75.80;;;;;;6184335;28;20542;-81
2021/10/03 07:43:13;;;;;;;7.97;6.80;;;19.50;74.90;;;;;;6182955;28;20419;-80
2021/10/03 07:46:16;;;;;;;7.57;6.87;;;19.60;75.10;;;;;;6190776;28;20456;-80
2021/10/03 07:49:18;;;;;;;10.30;7.57;;;19.70;75.30;;;;;;6206967;28;20421;-80
2021/10/03 07:52:19;;;;;;;10.10;7.40;;;19.70;74.70;;;;;;6206502;28;20536;-81
2021/10/03 07:55:28;;;;;;;7.75;7.00;;;19.70;74.60;;;;;;6207380;28;20553;-80
2021/10/03 07:58:31;;;;;;;7.88;7.10;;;19.70;74.90;;;;;;6205448;28;20418;-81
2021/10/03 08:01:33;;;;;;;14.18;12.68;;;19.70;74.20;;;;;;6206721;28;20509;-80
2021/10/03 08:04:34;;;;;;;11.50;10.38;;;19.80;74.40;;;;;;6206061;28;20966;-79
2021/10/03 08:07:36;;;;;;;10.32;9.23;;;19.80;74.00;;;;;;6205864;28;20501;-80
2021/10/03 08:10:38;;;;;;;11.13;10.03;;;19.90;74.00;;;;;;6204660;28;20570;-81
2021/10/03 08:13:42;;;;;;;12.20;10.85;;;19.90;74.10;;;;;;6203380;28;23993;-80
2021/10/03 08:16:43;;;;;;;12.43;8.70;;;19.90;73.50;;;;;;6200539;28;20529;-80
2021/10/03 08:19:45;;;;;;;12.07;8.82;;;20.10;73.40;;;;;;6205263;28;20429;-80
2021/10/03 08:22:47;;;;;;;10.43;7.93;;;20.10;73.70;;;;;;6206635;28;20438;-81
2021/10/03 08:25:50;;;;;;;7.32;6.63;;;20.10;73.80;;;;;;6205818;28;20458;-80
2021/10/03 08:28:53;;;;;;;8.43;7.63;;;20.10;74.30;;;;;;6206961;28;20431;-81
2021/10/03 08:31:55;;;;;;;7.60;6.90;;;20.10;74.70;;;;;;6206476;28;20576;-81
2021/10/03 08:34:57;;;;;;;7.93;7.13;;;20.00;74.80;;;;;;6206079;28;20498;-81
2021/10/03 08:38:00;;;;;;;6.72;6.03;;;20.00;75.60;;;;;;6205216;28;20426;-80
2021/10/03 08:41:02;;;;;;;8.13;6.60;;;19.90;75.40;;;;;;6204029;28;20523;-80
2021/10/03 08:44:06;;;;;;;7.13;6.32;;;19.90;75.40;;;;;;6206605;28;20469;-80
2021/10/03 08:47:08;;;;;;;9.82;7.70;;;19.90;75.40;;;;;;6188918;28;20860;-81
2021/10/03 08:50:11;;;;;;;13.13;11.82;;;20.00;75.40;;;;;;6179426;28;20484;-80
2021/10/03 08:53:15;;;;;;;13.57;12.18;;;20.00;74.90;;;;;;6181532;28;20470;-81
2021/10/03 08:56:17;;;;;;;16.48;14.88;;;20.10;74.00;;;;;;6182348;28;20526;-80
2021/10/03 08:59:20;;;;;;;15.13;12.77;;;20.20;73.30;;;;;;6181035;28;20427;-80
2021/10/03 09:02:22;;;;;;;13.00;10.68;;;20.30;72.70;;;;;;6194379;28;20509;-80
2021/10/03 09:05:26;;;;;;;8.87;7.70;;;20.30;72.30;;;;;;6195199;28;20495;-80
2021/10/03 09:08:29;;;;;;;9.10;6.95;;;20.40;72.00;;;;;;6195167;28;20524;-81
2021/10/03 09:11:37;;;;;;;8.30;7.47;;;20.50;71.50;;;;;;6197790;28;20534;-80
2021/10/03 09:14:40;;;;;;;10.65;7.68;;;20.60;70.50;;;;;;6195063;28;20439;-80
2021/10/03 09:17:42;;;;;;;8.88;6.55;;;20.70;69.80;;;;;;6202370;28;20423;-81
2021/10/03 09:20:44;;;;;;;8.30;6.55;;;20.80;70.60;;;;;;6192308;28;20498;-79
2021/10/03 09:23:57;;;;;;;7.40;6.70;;;20.90;70.00;;;;;;6189400;28;20536;-80
2021/10/03 09:27:03;;;;;;;9.90;6.53;;;20.90;70.50;;;;;;6182218;28;20946;-80
2021/10/03 09:30:08;;;;;;;8.63;7.00;;;21.00;71.10;;;;;;6193204;28;20502;-80
2021/10/03 09:33:10;;;;;;;9.45;7.20;;;21.10;71.90;;;;;;6180432;28;20409;-81
2021/10/03 09:36:13;;;;;;;7.10;6.40;;;21.30;72.30;;;;;;6191869;28;20469;-80
2021/10/03 09:39:15;;;;;;;7.43;5.93;;;21.30;71.00;;;;;;6179622;28;20457;-81
2021/10/03 09:42:18;;;;;;;7.03;5.82;;;21.30;70.40;;;;;;6179572;28;20914;-79
2021/10/03 09:45:23;;;;;;;6.80;5.30;;;21.40;68.60;;;;;;6193943;28;20470;-80
2021/10/03 09:48:25;;;;;;;5.97;5.38;;;21.50;68.70;;;;;;6198654;28;20466;-82
2021/10/03 09:51:27;;;;;;;6.78;5.78;;;21.60;68.60;;;;;;6204254;28;20419;-80
2021/10/03 09:54:30;;;;;;;6.18;4.47;;;21.80;67.80;;;;;;6204317;28;20438;-80
2021/10/03 09:57:32;;;;;;;5.55;4.88;;;22.10;66.50;;;;;;6204387;28;20419;-81
2021/10/03 10:00:35;;;;;;;8.10;5.88;;;22.40;64.10;;;;;;6203929;28;20927;-81
2021/10/03 10:03:38;;;;;;;6.38;5.57;;;22.70;65.00;;;;;;6211919;28;20483;-80
2021/10/03 10:06:42;;;;;;;6.85;6.13;;;23.00;62.70;;;;;;6204136;28;20991;-82
2021/10/03 10:09:45;;;;;;;10.13;6.60;;;23.10;61.30;;;;;;6202752;28;20426;-81
2021/10/03 10:12:52;;;;;;;8.85;5.97;;;23.30;60.30;;;;;;6201608;28;20554;-81
2021/10/03 10:16:16;;;;;;;9.57;6.78;;;23.30;61.40;;;;;;6189866;28;20444;-80
2021/10/03 10:19:38;;;;;;;6.68;5.53;;;23.30;60.20;;;;;;6200359;28;20919;-80
2021/10/03 10:22:41;;;;;;;8.23;6.45;;;23.20;61.20;;;;;;6201099;28;20927;-81
2021/10/03 10:25:46;;;;;;;9.02;6.45;;;23.20;60.00;;;;;;6201136;28;20934;-81
2021/10/03 10:28:48;;;;;;;7.45;6.10;;;23.10;59.70;;;;;;6200612;28;20465;-81
2021/10/03 10:32:09;;;;;;;5.82;4.85;;;22.90;59.70;;;;;;6198462;28;20442;-78
2021/10/03 10:35:21;;;;;;;6.70;5.30;;;22.70;61.10;;;;;;6197342;28;20430;-78
2021/10/03 10:38:23;;;;;;;8.40;5.80;;;22.60;63.60;;;;;;6198325;28;20444;-78
2021/10/03 10:41:35;;;;;;;6.30;5.00;;;22.50;63.90;;;;;;6198285;28;20419;-78
2021/10/03 10:44:41;;;;;;;6.63;5.63;;;22.40;63.40;;;;;;6195533;28;20519;-81
2021/10/03 10:48:17;;;;;;;12.23;8.13;;;22.30;64.70;;;;;;6194459;28;20765;-79
2021/10/03 10:51:19;;;;;;;8.15;5.03;;;22.30;65.30;;;;;;6197646;28;20484;-78
2021/10/03 10:54:21;;;;;;;7.90;6.35;;;22.30;65.20;;;;;;6197905;28;20422;-78
2021/10/03 10:57:23;;;;;;;7.90;6.85;;;22.40;65.90;;;;;;6199450;28;20441;-79
2021/10/03 11:00:27;;;;;;;9.73;6.63;;;22.40;65.80;;;;;;6201396;28;20438;-79
2021/10/03 11:04:01;;;;;;;6.78;6.15;;;22.50;66.80;;;;;;6202945;28;20410;-78
2021/10/03 11:07:04;;;;;;;7.07;6.30;;;22.60;64.80;;;;;;6204091;28;20502;-78
2021/10/03 11:10:06;;;;;;;7.75;5.95;;;22.70;64.30;;;;;;6202806;28;20418;-78
2021/10/03 11:13:41;;;;;;;6.85;5.97;;;22.90;63.80;;;;;;6203510;28;20562;-79
2021/10/03 11:16:46;;;;;;;6.60;5.90;;;23.00;62.90;;;;;;6190192;28;20458;-78
2021/10/03 11:19:50;;;;;;;9.32;7.13;;;23.20;62.40;;;;;;6187608;28;20435;-79
2021/10/03 11:22:52;;;;;;;10.00;6.88;;;23.40;62.40;;;;;;6181738;28;20818;-79
2021/10/03 11:26:03;;;;;;;7.78;5.75;;;23.50;61.60;;;;;;6181264;28;20495;-79
2021/10/03 11:29:06;;;;;;;8.32;6.70;;;23.60;62.00;;;;;;6181871;28;20455;-79
2021/10/03 11:32:10;;;;;;;8.40;6.93;;;23.60;62.10;;;;;;6180812;28;20530;-79
2021/10/03 11:35:13;;;;;;;8.05;6.88;;;23.50;62.50;;;;;;6180619;28;20431;-79
2021/10/03 11:38:15;;;;;;;8.80;6.40;;;23.50;62.50;;;;;;6181064;28;20486;-79
2021/10/03 11:41:17;;;;;;;8.83;6.77;;;23.40;62.70;;;;;;6180200;28;21192;-79
2021/10/03 11:44:20;;;;;;;9.00;6.60;;;23.60;62.40;;;;;;6186264;28;20931;-79
2021/10/03 11:47:21;;;;;;;6.53;5.93;;;23.80;61.20;;;;;;6190235;28;20489;-79
2021/10/03 11:50:27;;;;;;;9.25;7.55;;;24.00;60.80;;;;;;6205322;28;20505;-79
2021/10/03 11:53:30;;;;;;;8.27;7.17;;;24.10;60.70;;;;;;6204960;28;20425;-79
2021/10/03 11:56:37;;;;;;;8.15;7.35;;;24.00;60.60;;;;;;6205764;28;20437;-79
2021/10/03 11:59:40;;;;;;;10.13;6.40;;;23.90;61.80;;;;;;6205628;28;20466;-79
2021/10/03 12:02:43;;;;;;;8.23;5.80;;;24.00;61.80;;;;;;6205507;28;20454;-79
2021/10/03 12:05:46;;;;;;;6.65;5.80;;;24.10;61.40;;;;;;6205148;28;20497;-79
2021/10/03 12:08:51;;;;;;;6.70;6.00;;;24.20;60.30;;;;;;6204336;28;20525;-79
2021/10/03 12:11:55;;;;;;;6.63;5.97;;;24.20;60.60;;;;;;6205831;28;20528;-79
2021/10/03 12:14:56;;;;;;;7.13;5.83;;;24.30;60.70;;;;;;6197985;28;20426;-78
2021/10/03 12:17:58;;;;;;;6.68;5.80;;;24.50;60.80;;;;;;6186901;28;20443;-78
2021/10/03 12:21:03;;;;;;;6.15;5.55;;;24.80;60.60;;;;;;6199980;28;20438;-79
2021/10/03 12:24:08;;;;;;;6.15;5.47;;;25.00;59.80;;;;;;6204168;28;20437;-78
2021/10/03 12:27:23;;;;;;;6.00;5.40;;;25.20;59.60;;;;;;6202844;28;20422;-79
2021/10/03 12:30:24;;;;;;;6.75;6.00;;;25.40;58.60;;;;;;6202188;28;20588;-78
2021/10/03 12:33:38;;;;;;;6.90;4.93;;;25.50;58.90;;;;;;6202592;28;20920;-79
2021/10/03 12:36:41;;;;;;;6.93;5.10;;;25.60;57.90;;;;;;6203189;28;20434;-79
2021/10/03 12:39:45;;;;;;;9.88;6.60;;;25.80;59.00;;;;;;6203524;28;20449;-79
2021/10/03 12:42:47;;;;;;;7.47;6.30;;;25.80;58.20;;;;;;6204445;28;20430;-79
2021/10/03 12:45:49;;;;;;;7.30;6.38;;;25.80;58.20;;;;;;6183864;28;20511;-80
2021/10/03 12:48:51;;;;;;;8.02;6.07;;;25.80;57.80;;;;;;6158816;28;20528;-79
2021/10/03 12:51:54;;;;;;;7.10;6.28;;;25.60;57.80;;;;;;6157018;29;20891;-79
2021/10/03 12:54:56;;;;;;;7.70;6.90;;;25.40;58.20;;;;;;6158168;28;20450;-79
2021/10/03 12:57:57;;;;;;;5.78;5.28;;;25.20;58.60;;;;;;6160868;28;20458;-80
2021/10/03 13:00:59;;;;;;;7.38;5.10;;;25.10;59.20;;;;;;6158271;28;20899;-79
2021/10/03 13:04:01;;;;;;;19.92;17.65;;;24.90;59.30;;;;;;6158800;29;20541;-79
2021/10/03 13:07:06;;;;;;;72.50;54.35;;;24.70;59.90;;;;;;6162341;28;20473;-78
2021/10/03 13:10:08;;;;;;;23.95;21.50;;;24.60;60.30;;;;;;6156988;28;20429;-79
2021/10/03 13:13:10;;;;;;;7.80;7.10;;;24.50;60.60;;;;;;6154280;28;20939;-79
2021/10/03 13:16:12;;;;;;;10.82;9.80;;;24.30;61.50;;;;;;6163347;28;20596;-79
2021/10/03 13:19:14;;;;;;;10.07;9.13;;;24.10;63.10;;;;;;6175240;28;20450;-79
2021/10/03 13:22:17;;;;;;;6.80;6.00;;;23.70;65.30;;;;;;6170501;28;20452;-79
2021/10/03 13:25:19;;;;;;;9.80;7.07;;;23.30;64.20;;;;;;6175875;28;20819;-81
2021/10/03 13:28:20;;;;;;;8.48;6.15;;;22.90;66.40;;;;;;6176647;28;20534;-79
2021/10/03 13:31:22;;;;;;;7.63;6.22;;;22.50;67.50;;;;;;6174858;28;20470;-79
2021/10/03 13:34:25;;;;;;;9.40;6.80;;;22.30;68.70;;;;;;6175329;28;20488;-79
2021/10/03 13:37:28;;;;;;;8.30;6.53;;;22.20;69.80;;;;;;6175867;28;20424;-79
2021/10/03 13:40:30;;;;;;;7.28;6.25;;;22.00;69.10;;;;;;6175401;28;20888;-79
2021/10/03 13:43:33;;;;;;;9.50;6.47;;;21.90;69.90;;;;;;6175282;28;20420;-78
2021/10/03 13:46:35;;;;;;;7.30;6.30;;;21.70;72.40;;;;;;6162601;28;20427;-78
2021/10/03 13:49:37;;;;;;;9.15;7.30;;;21.60;72.40;;;;;;6174659;28;20476;-79
2021/10/03 13:52:40;;;;;;;7.18;6.15;;;21.40;73.20;;;;;;6174867;28;20435;-78
2021/10/03 13:55:42;;;;;;;7.70;6.70;;;21.40;73.90;;;;;;6174526;28;20826;-78
2021/10/03 13:58:44;;;;;;;8.43;6.57;;;21.20;74.30;;;;;;6174002;28;20420;-78
2021/10/03 14:01:46;;;;;;;6.70;6.10;;;21.10;75.90;;;;;;6173988;28;20506;-78
2021/10/03 14:04:47;;;;;;;7.77;6.97;;;20.90;76.00;;;;;;6174045;28;20534;-78
2021/10/03 14:07:51;;;;;;;8.00;6.55;;;20.90;76.50;;;;;;6173696;28;20467;-79
2021/10/03 14:10:53;;;;;;;9.30;6.45;;;21.00;76.50;;;;;;6173058;28;20419;-79
2021/10/03 14:13:54;;;;;;;7.80;6.47;;;21.00;76.50;;;;;;6173462;28;20424;-79
2021/10/03 14:16:56;;;;;;;8.00;6.32;;;21.00;76.20;;;;;;6165426;28;20945;-79
2021/10/03 14:19:58;;;;;;;7.22;6.43;;;21.10;75.40;;;;;;6167845;28;20577;-78
2021/10/03 14:23:02;;;;;;;8.33;5.53;;;21.00;76.60;;;;;;6155974;28;20494;-78
2021/10/03 14:26:04;;;;;;;6.93;5.73;;;21.00;77.00;;;;;;6148952;28;20981;-78
2021/10/03 14:29:06;;;;;;;6.75;6.00;;;21.00;77.40;;;;;;6150825;28;20546;-80
2021/10/03 14:32:08;;;;;;;8.15;5.50;;;20.90;76.10;;;;;;6151316;29;21010;-80
2021/10/03 14:35:12;;;;;;;7.18;6.18;;;20.90;75.70;;;;;;6150959;28;20449;-80
2021/10/03 14:38:15;;;;;;;10.55;6.82;;;20.80;77.70;;;;;;6151936;28;20485;-80
2021/10/03 14:41:17;;;;;;;9.07;7.55;;;20.60;79.20;;;;;;6151827;28;20454;-79
2021/10/03 14:44:19;;;;;;;10.23;8.75;;;20.50;79.80;;;;;;6153794;28;20437;-80
2021/10/03 14:47:21;;;;;;;10.93;7.20;;;20.40;79.80;;;;;;6167565;28;20474;-79
2021/10/03 14:50:24;;;;;;;9.93;6.63;;;20.40;80.20;;;;;;6175457;28;20555;-79
2021/10/03 14:53:29;;;;;;;9.45;7.15;;;20.40;79.90;;;;;;6176394;28;20483;-79
2021/10/03 14:56:31;;;;;;;7.13;6.43;;;20.40;79.90;;;;;;6176823;28;20439;-79
2021/10/03 14:59:33;;;;;;;11.90;7.47;;;20.40;80.00;;;;;;6176325;28;20443;-79
2021/10/03 15:02:35;;;;;;;7.30;6.07;;;20.30;79.20;;;;;;6176427;28;20551;-80
2021/10/03 15:05:37;;;;;;;6.05;5.45;;;20.30;79.70;;;;;;6176642;28;20973;-79
2021/10/03 15:08:40;;;;;;;7.15;5.60;;;20.30;80.00;;;;;;6173244;28;20530;-79
2021/10/03 15:11:42;;;;;;;6.53;5.63;;;20.20;80.00;;;;;;6172030;28;20469;-79
2021/10/03 15:14:44;;;;;;;10.87;7.67;;;20.20;79.20;;;;;;6168915;28;20484;-79
2021/10/03 15:17:46;;;;;;;10.88;9.48;;;20.30;79.70;;;;;;6155878;28;20413;-79
2021/10/03 15:20:48;;;;;;;11.00;7.63;;;20.20;79.40;;;;;;6153963;28;20531;-79
2021/10/03 15:23:51;;;;;;;10.90;9.57;;;20.20;80.00;;;;;;6174718;28;20563;-79
2021/10/03 15:26:53;;;;;;;10.73;9.02;;;20.10;79.60;;;;;;6174387;28;20448;-80
2021/10/03 15:29:55;;;;;;;9.05;7.18;;;20.10;80.30;;;;;;6174336;28;20416;-80
2021/10/03 15:32:57;;;;;;;11.30;9.18;;;20.10;79.90;;;;;;6174705;28;20440;-79
2021/10/03 15:35:59;;;;;;;10.13;5.70;;;20.00;80.40;;;;;;6173989;28;20779;-79
2021/10/03 15:39:02;;;;;;;10.25;5.90;;;19.90;80.30;;;;;;6173140;28;20424;-79
2021/10/03 15:42:04;;;;;;;7.03;6.25;;;19.80;80.60;;;;;;6174334;28;20499;-80
2021/10/03 15:45:08;;;;;;;19.63;15.82;;;19.80;81.90;;;;;;6174619;28;20547;-80
2021/10/03 15:48:10;;;;;;;17.42;14.13;;;19.70;81.90;;;;;;6171538;28;20502;-80
2021/10/03 15:51:12;;;;;;;24.83;16.58;;;19.80;81.60;;;;;;6178643;28;20420;-81